Historyczne dane pomiarowe

Dodano dane terminowe – wersja testowa.

Dane z okresu 1951-2019

Wersja bazy: 1.34 [2019-03-16, lista zmian], aktualizacja planowana na 2019-04-15

Dane meteo z obszaru Polski uzyskane na podstawie danych udostępnionych przez Instytut Meteorologii i Gospodarki Wodnej – Państwowy Instytut Badawczy.

 

Wybierz Datę:    

       

TemperaturaWilgotnośćWiatrCiśnienieOpadyŚniegCzas trwania zjawisk
 Stacja t tx tn tng RH VA  wxwx mslp ppp RRR   cm mm wxwxwxwxwxwxwx
1952-07-16 17.0 21.3 8.9 11.9 75.5- 7.3 3.7---- 0.4------------
1952-07-17 16.6 24.2 8.3 6.0 61.3- 0.7 1.7---- 0.0------------
1952-07-18 18.8 27.2 7.4 5.5 71.3- 3.3 4.3---- 10.3------------
1952-07-19 15.8 19.9 13.3 12.5 63.8- 5.0 6.3---- 0.3------------
1952-07-20 17.3 22.1 13.1 12.2 75.5- 6.0 4.7---- 1.1------------
1952-07-21 16.3 23.4 13.0 14.5 68.5- 2.7 4.3---- 0.0------------
1952-07-22 18.8 25.4 5.9 4.2 55.0- 1.7 2.0---- 0.0------------
1952-07-23 19.5 28.1 9.3 7.5 56.0- 3.7 5.3---- 0.0------------
1952-07-24 15.7 20.3 8.9 6.5 61.5- 4.7 1.7---- 0.0------------
1952-07-25 14.3 19.8 8.8 6.3 73.3- 6.3 2.7---- 5.5------------
1952-07-26 13.9 21.3 9.9 5.5 81.8- 4.3 1.3---- 0.6------------
1952-07-27 16.2 22.3 8.6 6.5 67.3- 1.0 2.3---- 0.0------------
1952-07-28 21.8 28.5 11.4 8.8 53.3- 1.3 6.7---- 0.0------------
1952-07-29 19.1 29.7 13.7 12.7 66.8- 5.0 3.0---- 4.6------------
1952-07-30 16.3 24.1 11.7 11.8 73.3- 4.3 2.3---- 0.0------------
1952-07-31 17.0 24.3 9.7 8.1 69.0- 1.3 1.0---- 0.0------------
1952-08-01 20.1 26.6 8.5 6.5 59.5- 3.3 1.0---- 0.0------------
1952-08-02 20.5 28.6 10.7 8.5 58.3- 2.0 1.3---- 0.0------------
1952-08-03 22.8 30.7 11.6 9.0 48.8- 1.7 3.3---- 0.0------------
1952-08-04 21.1 28.5 12.7 10.3 70.5- 6.7 1.7---- 2.2------------
1952-08-05 21.3 29.1 15.9 14.5 69.8- 1.7 0.3---- 0.0------------
1952-08-06 24.1 32.7 13.8 11.5 56.0- 3.3 1.7---- 0.0------------
1952-08-07 24.2 35.0 17.8 14.1 55.3- 1.3 2.7---- 0.0------------
1952-08-08 20.9 31.7 16.0 13.4 76.3- 7.3 1.7---- 0.0------------
1952-08-09 19.2 27.6 14.7 13.5 79.3- 1.3 1.0---- 30.6------------
1952-08-10 17.9 22.5 15.2 14.1 82.8- 5.0 4.3---- 1.7------------
1952-08-11 18.3 25.8 11.2 10.0 67.0- 1.7 3.7---- 0.0------------
1952-08-12 20.8 29.1 12.5 10.6 68.0- 0.3 2.0---- 0.0------------
1952-08-13 27.1 34.2 9.3 12.4 51.0- 0.7 4.3---- 0.0------------
1952-08-14 25.8 34.8 16.0 14.3 57.3- 1.3 1.3---- 0.0------------
75.3 ms

 

Źródłem pochodzenia danych jest Instytut Meteorologii i Gospodarki Wodnej – Państwowy Instytut Badawczy. Dane Instytutu Meteorologii i Gospodarki Wodnej – Państwowego Instytutu Badawczego zostały przetworzone.

Dane źródłowe można odnaleźć na stronie https://dane.imgw.pl